sensor_id;sensor_type;location;lat;lon;timestamp;P1;durP1;ratioP1;P2;durP2;ratioP2
46128;SDS011;31860;45.186;5.790;2024-01-06T00:01:44;2.28;;;1.98;;
46128;SDS011;31860;45.186;5.790;2024-01-06T00:04:09;2.15;;;1.65;;
46128;SDS011;31860;45.186;5.790;2024-01-06T00:06:34;1.23;;;1.13;;
46128;SDS011;31860;45.186;5.790;2024-01-06T00:09:00;4.70;;;1.60;;
46128;SDS011;31860;45.186;5.790;2024-01-06T00:11:25;2.47;;;1.83;;
46128;SDS011;31860;45.186;5.790;2024-01-06T00:13:51;3.80;;;1.27;;
46128;SDS011;31860;45.186;5.790;2024-01-06T00:16:16;6.55;;;1.35;;
46128;SDS011;31860;45.186;5.790;2024-01-06T00:18:43;1.52;;;1.13;;
46128;SDS011;31860;45.186;5.790;2024-01-06T00:21:09;1.63;;;1.52;;
46128;SDS011;31860;45.186;5.790;2024-01-06T00:23:34;3.00;;;1.38;;
46128;SDS011;31860;45.186;5.790;2024-01-06T00:25:59;2.55;;;1.75;;
46128;SDS011;31860;45.186;5.790;2024-01-06T00:28:25;2.40;;;1.70;;
46128;SDS011;31860;45.186;5.790;2024-01-06T00:30:50;3.05;;;2.10;;
46128;SDS011;31860;45.186;5.790;2024-01-06T00:33:15;1.33;;;1.15;;
46128;SDS011;31860;45.186;5.790;2024-01-06T00:35:41;1.15;;;1.05;;
46128;SDS011;31860;45.186;5.790;2024-01-06T00:38:06;2.90;;;2.17;;
46128;SDS011;31860;45.186;5.790;2024-01-06T00:40:31;2.15;;;1.70;;
46128;SDS011;31860;45.186;5.790;2024-01-06T00:42:57;1.42;;;1.33;;
46128;SDS011;31860;45.186;5.790;2024-01-06T00:45:23;1.50;;;1.40;;
46128;SDS011;31860;45.186;5.790;2024-01-06T00:47:48;1.80;;;1.50;;
46128;SDS011;31860;45.186;5.790;2024-01-06T00:50:14;3.28;;;1.90;;
46128;SDS011;31860;45.186;5.790;2024-01-06T00:52:39;1.23;;;1.13;;
46128;SDS011;31860;45.186;5.790;2024-01-06T00:55:05;2.33;;;1.95;;
46128;SDS011;31860;45.186;5.790;2024-01-06T00:57:30;2.05;;;1.63;;
46128;SDS011;31860;45.186;5.790;2024-01-06T00:59:55;2.33;;;1.77;;
46128;SDS011;31860;45.186;5.790;2024-01-06T01:02:21;3.42;;;2.03;;
46128;SDS011;31860;45.186;5.790;2024-01-06T01:04:46;1.98;;;1.67;;
46128;SDS011;31860;45.186;5.790;2024-01-06T01:07:12;2.00;;;1.70;;
46128;SDS011;31860;45.186;5.790;2024-01-06T01:09:37;2.80;;;1.70;;
46128;SDS011;31860;45.186;5.790;2024-01-06T01:12:03;3.53;;;1.40;;
46128;SDS011;31860;45.186;5.790;2024-01-06T01:14:28;2.60;;;1.83;;
46128;SDS011;31860;45.186;5.790;2024-01-06T01:16:54;4.85;;;1.75;;
46128;SDS011;31860;45.186;5.790;2024-01-06T01:19:19;4.68;;;1.60;;
46128;SDS011;31860;45.186;5.790;2024-01-06T01:21:44;2.13;;;1.42;;
46128;SDS011;31860;45.186;5.790;2024-01-06T01:24:09;1.75;;;1.38;;
46128;SDS011;31860;45.186;5.790;2024-01-06T01:26:35;2.67;;;1.55;;
46128;SDS011;31860;45.186;5.790;2024-01-06T01:29:00;4.13;;;2.13;;
46128;SDS011;31860;45.186;5.790;2024-01-06T01:31:25;2.53;;;1.85;;
46128;SDS011;31860;45.186;5.790;2024-01-06T01:33:51;1.67;;;1.48;;
46128;SDS011;31860;45.186;5.790;2024-01-06T01:36:16;3.22;;;1.67;;
46128;SDS011;31860;45.186;5.790;2024-01-06T01:38:43;2.20;;;1.60;;
46128;SDS011;31860;45.186;5.790;2024-01-06T01:41:08;2.13;;;1.88;;
46128;SDS011;31860;45.186;5.790;2024-01-06T01:43:33;2.83;;;1.77;;
46128;SDS011;31860;45.186;5.790;2024-01-06T01:45:59;3.40;;;1.80;;
46128;SDS011;31860;45.186;5.790;2024-01-06T01:48:25;1.55;;;1.30;;
46128;SDS011;31860;45.186;5.790;2024-01-06T01:50:51;3.85;;;1.88;;
46128;SDS011;31860;45.186;5.790;2024-01-06T01:53:17;3.05;;;1.70;;
46128;SDS011;31860;45.186;5.790;2024-01-06T01:55:43;1.75;;;1.65;;
46128;SDS011;31860;45.186;5.790;2024-01-06T01:58:09;2.10;;;1.67;;
46128;SDS011;31860;45.186;5.790;2024-01-06T02:00:35;2.67;;;1.35;;
46128;SDS011;31860;45.186;5.790;2024-01-06T02:03:01;4.93;;;2.80;;
46128;SDS011;31860;45.186;5.790;2024-01-06T02:05:29;1.98;;;1.38;;
46128;SDS011;31860;45.186;5.790;2024-01-06T02:07:54;2.08;;;1.77;;
46128;SDS011;31860;45.186;5.790;2024-01-06T02:10:20;2.05;;;1.45;;
46128;SDS011;31860;45.186;5.790;2024-01-06T02:12:45;1.98;;;1.75;;
46128;SDS011;31860;45.186;5.790;2024-01-06T02:15:11;2.85;;;1.77;;
46128;SDS011;31860;45.186;5.790;2024-01-06T02:17:36;3.30;;;1.77;;
46128;SDS011;31860;45.186;5.790;2024-01-06T02:20:01;3.25;;;1.15;;
46128;SDS011;31860;45.186;5.790;2024-01-06T02:22:27;2.35;;;1.77;;
46128;SDS011;31860;45.186;5.790;2024-01-06T02:24:52;1.48;;;1.38;;
46128;SDS011;31860;45.186;5.790;2024-01-06T02:27:18;4.05;;;1.95;;
46128;SDS011;31860;45.186;5.790;2024-01-06T02:29:44;3.10;;;2.00;;
46128;SDS011;31860;45.186;5.790;2024-01-06T02:32:09;3.08;;;1.50;;
46128;SDS011;31860;45.186;5.790;2024-01-06T02:34:34;2.45;;;2.08;;
46128;SDS011;31860;45.186;5.790;2024-01-06T02:36:59;2.33;;;1.30;;
46128;SDS011;31860;45.186;5.790;2024-01-06T02:39:25;3.75;;;1.83;;
46128;SDS011;31860;45.186;5.790;2024-01-06T02:41:50;3.90;;;1.85;;
46128;SDS011;31860;45.186;5.790;2024-01-06T02:44:15;2.70;;;1.92;;
46128;SDS011;31860;45.186;5.790;2024-01-06T02:46:41;2.10;;;1.15;;
46128;SDS011;31860;45.186;5.790;2024-01-06T02:49:07;1.55;;;1.45;;
46128;SDS011;31860;45.186;5.790;2024-01-06T02:51:33;1.70;;;1.55;;
46128;SDS011;31860;45.186;5.790;2024-01-06T02:53:58;2.22;;;1.40;;
46128;SDS011;31860;45.186;5.790;2024-01-06T02:56:23;3.42;;;2.15;;
46128;SDS011;31860;45.186;5.790;2024-01-06T02:58:49;3.90;;;1.67;;
46128;SDS011;31860;45.186;5.790;2024-01-06T03:01:14;2.03;;;1.70;;
46128;SDS011;31860;45.186;5.790;2024-01-06T03:03:39;1.65;;;1.55;;
46128;SDS011;31860;45.186;5.790;2024-01-06T03:06:05;2.70;;;2.25;;
46128;SDS011;31860;45.186;5.790;2024-01-06T03:08:30;4.78;;;2.20;;
46128;SDS011;31860;45.186;5.790;2024-01-06T03:10:56;2.30;;;1.83;;
46128;SDS011;31860;45.186;5.790;2024-01-06T03:13:21;2.20;;;1.48;;
46128;SDS011;31860;45.186;5.790;2024-01-06T03:15:46;3.83;;;1.40;;
46128;SDS011;31860;45.186;5.790;2024-01-06T03:18:12;1.23;;;1.10;;
46128;SDS011;31860;45.186;5.790;2024-01-06T03:20:37;1.65;;;1.05;;
46128;SDS011;31860;45.186;5.790;2024-01-06T03:23:03;3.05;;;1.02;;
46128;SDS011;31860;45.186;5.790;2024-01-06T03:25:28;1.85;;;0.73;;
46128;SDS011;31860;45.186;5.790;2024-01-06T03:27:53;2.53;;;1.30;;
46128;SDS011;31860;45.186;5.790;2024-01-06T03:30:19;1.08;;;1.05;;
46128;SDS011;31860;45.186;5.790;2024-01-06T03:32:44;1.00;;;1.00;;
46128;SDS011;31860;45.186;5.790;2024-01-06T03:35:09;1.50;;;1.30;;
46128;SDS011;31860;45.186;5.790;2024-01-06T03:37:34;1.70;;;1.38;;
46128;SDS011;31860;45.186;5.790;2024-01-06T03:40:00;3.20;;;1.33;;
46128;SDS011;31860;45.186;5.790;2024-01-06T03:42:26;1.60;;;1.25;;
46128;SDS011;31860;45.186;5.790;2024-01-06T03:44:51;2.45;;;1.35;;
46128;SDS011;31860;45.186;5.790;2024-01-06T03:47:16;1.98;;;1.85;;
46128;SDS011;31860;45.186;5.790;2024-01-06T03:49:43;2.50;;;1.75;;
46128;SDS011;31860;45.186;5.790;2024-01-06T03:52:08;1.23;;;0.80;;
46128;SDS011;31860;45.186;5.790;2024-01-06T03:54:33;1.58;;;1.02;;
46128;SDS011;31860;45.186;5.790;2024-01-06T03:56:58;1.65;;;1.15;;
46128;SDS011;31860;45.186;5.790;2024-01-06T03:59:24;2.20;;;1.73;;
46128;SDS011;31860;45.186;5.790;2024-01-06T04:01:50;1.63;;;1.23;;
46128;SDS011;31860;45.186;5.790;2024-01-06T04:04:15;7.15;;;1.95;;
46128;SDS011;31860;45.186;5.790;2024-01-06T04:06:40;2.30;;;1.25;;
46128;SDS011;31860;45.186;5.790;2024-01-06T04:09:06;1.50;;;0.95;;
46128;SDS011;31860;45.186;5.790;2024-01-06T04:11:31;1.27;;;1.17;;
46128;SDS011;31860;45.186;5.790;2024-01-06T04:13:56;3.92;;;1.48;;
46128;SDS011;31860;45.186;5.790;2024-01-06T04:16:22;1.70;;;1.20;;
46128;SDS011;31860;45.186;5.790;2024-01-06T04:18:47;3.50;;;1.48;;
46128;SDS011;31860;45.186;5.790;2024-01-06T04:21:12;2.75;;;1.27;;
46128;SDS011;31860;45.186;5.790;2024-01-06T04:23:38;2.15;;;1.55;;
46128;SDS011;31860;45.186;5.790;2024-01-06T04:26:04;2.92;;;1.50;;
46128;SDS011;31860;45.186;5.790;2024-01-06T04:28:30;1.38;;;1.10;;
46128;SDS011;31860;45.186;5.790;2024-01-06T04:30:55;1.88;;;1.40;;
46128;SDS011;31860;45.186;5.790;2024-01-06T04:33:21;1.35;;;1.25;;
46128;SDS011;31860;45.186;5.790;2024-01-06T04:35:46;0.77;;;0.70;;
46128;SDS011;31860;45.186;5.790;2024-01-06T04:38:11;3.40;;;1.02;;
46128;SDS011;31860;45.186;5.790;2024-01-06T04:40:37;1.73;;;1.17;;
46128;SDS011;31860;45.186;5.790;2024-01-06T04:43:02;2.28;;;1.55;;
46128;SDS011;31860;45.186;5.790;2024-01-06T04:45:28;0.73;;;0.73;;
46128;SDS011;31860;45.186;5.790;2024-01-06T04:47:54;2.45;;;1.10;;
46128;SDS011;31860;45.186;5.790;2024-01-06T04:50:19;1.08;;;0.95;;
46128;SDS011;31860;45.186;5.790;2024-01-06T04:52:44;2.45;;;1.65;;
46128;SDS011;31860;45.186;5.790;2024-01-06T04:55:10;1.20;;;1.05;;
46128;SDS011;31860;45.186;5.790;2024-01-06T04:57:36;1.35;;;1.13;;
46128;SDS011;31860;45.186;5.790;2024-01-06T05:00:02;2.42;;;1.17;;
46128;SDS011;31860;45.186;5.790;2024-01-06T05:02:29;2.38;;;0.93;;
46128;SDS011;31860;45.186;5.790;2024-01-06T05:04:54;0.93;;;0.93;;
46128;SDS011;31860;45.186;5.790;2024-01-06T05:07:20;1.27;;;1.08;;
46128;SDS011;31860;45.186;5.790;2024-01-06T05:09:45;1.67;;;1.40;;
46128;SDS011;31860;45.186;5.790;2024-01-06T05:12:11;0.60;;;0.60;;
46128;SDS011;31860;45.186;5.790;2024-01-06T05:14:36;1.35;;;0.88;;
46128;SDS011;31860;45.186;5.790;2024-01-06T05:17:01;4.05;;;1.25;;
46128;SDS011;31860;45.186;5.790;2024-01-06T05:19:27;1.00;;;0.95;;
46128;SDS011;31860;45.186;5.790;2024-01-06T05:21:52;0.65;;;0.60;;
46128;SDS011;31860;45.186;5.790;2024-01-06T05:24:18;1.48;;;1.33;;
46128;SDS011;31860;45.186;5.790;2024-01-06T05:26:44;1.08;;;0.50;;
46128;SDS011;31860;45.186;5.790;2024-01-06T05:29:09;1.42;;;0.90;;
46128;SDS011;31860;45.186;5.790;2024-01-06T05:31:35;0.75;;;0.70;;
46128;SDS011;31860;45.186;5.790;2024-01-06T05:34:00;0.90;;;0.80;;
46128;SDS011;31860;45.186;5.790;2024-01-06T05:36:26;0.50;;;0.50;;
46128;SDS011;31860;45.186;5.790;2024-01-06T05:38:51;7.07;;;1.27;;
46128;SDS011;31860;45.186;5.790;2024-01-06T05:41:16;0.68;;;0.57;;
46128;SDS011;31860;45.186;5.790;2024-01-06T05:43:42;0.40;;;0.40;;
46128;SDS011;31860;45.186;5.790;2024-01-06T05:46:07;0.73;;;0.73;;
46128;SDS011;31860;45.186;5.790;2024-01-06T05:48:33;0.43;;;0.43;;
46128;SDS011;31860;45.186;5.790;2024-01-06T05:50:58;1.17;;;0.70;;
46128;SDS011;31860;45.186;5.790;2024-01-06T05:53:23;0.57;;;0.40;;
46128;SDS011;31860;45.186;5.790;2024-01-06T05:55:49;0.80;;;0.70;;
46128;SDS011;31860;45.186;5.790;2024-01-06T05:58:14;0.82;;;0.82;;
46128;SDS011;31860;45.186;5.790;2024-01-06T06:00:39;0.68;;;0.52;;
46128;SDS011;31860;45.186;5.790;2024-01-06T06:03:05;0.52;;;0.52;;
46128;SDS011;31860;45.186;5.790;2024-01-06T06:05:30;0.82;;;0.82;;
46128;SDS011;31860;45.186;5.790;2024-01-06T06:07:56;1.35;;;0.80;;
46128;SDS011;31860;45.186;5.790;2024-01-06T06:10:21;0.22;;;0.22;;
46128;SDS011;31860;45.186;5.790;2024-01-06T06:12:46;0.68;;;0.40;;
46128;SDS011;31860;45.186;5.790;2024-01-06T06:15:12;0.70;;;0.50;;
46128;SDS011;31860;45.186;5.790;2024-01-06T06:17:38;0.30;;;0.30;;
46128;SDS011;31860;45.186;5.790;2024-01-06T06:20:04;0.30;;;0.30;;
46128;SDS011;31860;45.186;5.790;2024-01-06T06:22:31;0.30;;;0.30;;
46128;SDS011;31860;45.186;5.790;2024-01-06T06:24:57;0.25;;;0.25;;
46128;SDS011;31860;45.186;5.790;2024-01-06T06:27:23;0.30;;;0.30;;
46128;SDS011;31860;45.186;5.790;2024-01-06T06:29:48;0.57;;;0.40;;
46128;SDS011;31860;45.186;5.790;2024-01-06T06:32:14;0.20;;;0.20;;
46128;SDS011;31860;45.186;5.790;2024-01-06T06:34:39;0.55;;;0.50;;
46128;SDS011;31860;45.186;5.790;2024-01-06T06:37:04;0.45;;;0.45;;
46128;SDS011;31860;45.186;5.790;2024-01-06T06:39:30;0.40;;;0.40;;
46128;SDS011;31860;45.186;5.790;2024-01-06T06:41:57;0.22;;;0.22;;
46128;SDS011;31860;45.186;5.790;2024-01-06T06:44:22;0.20;;;0.20;;
46128;SDS011;31860;45.186;5.790;2024-01-06T06:46:48;0.40;;;0.40;;
46128;SDS011;31860;45.186;5.790;2024-01-06T06:49:14;0.30;;;0.30;;
46128;SDS011;31860;45.186;5.790;2024-01-06T06:51:39;0.20;;;0.20;;
46128;SDS011;31860;45.186;5.790;2024-01-06T06:54:11;0.30;;;0.30;;
46128;SDS011;31860;45.186;5.790;2024-01-06T06:56:37;0.40;;;0.40;;
46128;SDS011;31860;45.186;5.790;2024-01-06T06:59:02;0.30;;;0.30;;
46128;SDS011;31860;45.186;5.790;2024-01-06T07:01:28;0.20;;;0.20;;
46128;SDS011;31860;45.186;5.790;2024-01-06T07:03:53;0.28;;;0.28;;
46128;SDS011;31860;45.186;5.790;2024-01-06T07:06:19;0.30;;;0.30;;
46128;SDS011;31860;45.186;5.790;2024-01-06T07:08:44;0.38;;;0.35;;
46128;SDS011;31860;45.186;5.790;2024-01-06T07:11:10;0.32;;;0.32;;
46128;SDS011;31860;45.186;5.790;2024-01-06T07:13:36;0.65;;;0.60;;
46128;SDS011;31860;45.186;5.790;2024-01-06T07:16:02;0.73;;;0.68;;
46128;SDS011;31860;45.186;5.790;2024-01-06T07:18:27;0.75;;;0.75;;
46128;SDS011;31860;45.186;5.790;2024-01-06T07:20:53;0.38;;;0.35;;
46128;SDS011;31860;45.186;5.790;2024-01-06T07:23:18;0.47;;;0.47;;
46128;SDS011;31860;45.186;5.790;2024-01-06T07:25:43;0.60;;;0.60;;
46128;SDS011;31860;45.186;5.790;2024-01-06T07:28:09;0.63;;;0.55;;
46128;SDS011;31860;45.186;5.790;2024-01-06T07:30:35;1.45;;;0.80;;
46128;SDS011;31860;45.186;5.790;2024-01-06T07:33:00;0.22;;;0.22;;
46128;SDS011;31860;45.186;5.790;2024-01-06T07:35:25;0.20;;;0.20;;
46128;SDS011;31860;45.186;5.790;2024-01-06T07:37:51;0.43;;;0.43;;
46128;SDS011;31860;45.186;5.790;2024-01-06T07:40:16;0.20;;;0.20;;
46128;SDS011;31860;45.186;5.790;2024-01-06T07:42:42;0.30;;;0.30;;
46128;SDS011;31860;45.186;5.790;2024-01-06T07:45:08;0.32;;;0.32;;
46128;SDS011;31860;45.186;5.790;2024-01-06T07:47:34;0.52;;;0.30;;
46128;SDS011;31860;45.186;5.790;2024-01-06T07:50:00;0.40;;;0.40;;
46128;SDS011;31860;45.186;5.790;2024-01-06T07:52:25;0.20;;;0.20;;
46128;SDS011;31860;45.186;5.790;2024-01-06T07:54:51;0.40;;;0.40;;
46128;SDS011;31860;45.186;5.790;2024-01-06T07:57:16;0.45;;;0.40;;
46128;SDS011;31860;45.186;5.790;2024-01-06T07:59:41;0.20;;;0.20;;
46128;SDS011;31860;45.186;5.790;2024-01-06T08:02:06;0.20;;;0.20;;
46128;SDS011;31860;45.186;5.790;2024-01-06T08:04:32;0.30;;;0.30;;
46128;SDS011;31860;45.186;5.790;2024-01-06T08:06:57;0.22;;;0.22;;
46128;SDS011;31860;45.186;5.790;2024-01-06T08:09:23;0.40;;;0.40;;
46128;SDS011;31860;45.186;5.790;2024-01-06T08:11:48;0.22;;;0.22;;
46128;SDS011;31860;45.186;5.790;2024-01-06T08:14:14;0.30;;;0.30;;
46128;SDS011;31860;45.186;5.790;2024-01-06T08:16:41;0.30;;;0.30;;
46128;SDS011;31860;45.186;5.790;2024-01-06T08:19:07;0.20;;;0.20;;
46128;SDS011;31860;45.186;5.790;2024-01-06T08:21:32;0.20;;;0.20;;
46128;SDS011;31860;45.186;5.790;2024-01-06T08:23:59;1.00;;;0.40;;
46128;SDS011;31860;45.186;5.790;2024-01-06T08:26:24;0.57;;;0.57;;
46128;SDS011;31860;45.186;5.790;2024-01-06T08:28:50;0.30;;;0.30;;
46128;SDS011;31860;45.186;5.790;2024-01-06T08:31:15;0.35;;;0.35;;
46128;SDS011;31860;45.186;5.790;2024-01-06T08:33:40;0.43;;;0.43;;
46128;SDS011;31860;45.186;5.790;2024-01-06T08:36:06;0.40;;;0.40;;
46128;SDS011;31860;45.186;5.790;2024-01-06T08:38:31;0.30;;;0.30;;
46128;SDS011;31860;45.186;5.790;2024-01-06T08:40:57;0.40;;;0.40;;
46128;SDS011;31860;45.186;5.790;2024-01-06T08:43:22;0.63;;;0.52;;
46128;SDS011;31860;45.186;5.790;2024-01-06T08:45:47;0.55;;;0.40;;
46128;SDS011;31860;45.186;5.790;2024-01-06T08:48:13;1.58;;;0.60;;
46128;SDS011;31860;45.186;5.790;2024-01-06T08:50:40;0.70;;;0.70;;
46128;SDS011;31860;45.186;5.790;2024-01-06T08:53:05;0.57;;;0.43;;
46128;SDS011;31860;45.186;5.790;2024-01-06T08:55:30;0.50;;;0.38;;
46128;SDS011;31860;45.186;5.790;2024-01-06T08:57:56;0.50;;;0.50;;
46128;SDS011;31860;45.186;5.790;2024-01-06T09:00:21;0.50;;;0.50;;
46128;SDS011;31860;45.186;5.790;2024-01-06T09:02:46;0.85;;;0.40;;
46128;SDS011;31860;45.186;5.790;2024-01-06T09:05:12;0.40;;;0.40;;
46128;SDS011;31860;45.186;5.790;2024-01-06T09:07:37;0.40;;;0.40;;
46128;SDS011;31860;45.186;5.790;2024-01-06T09:10:02;0.20;;;0.20;;
46128;SDS011;31860;45.186;5.790;2024-01-06T09:12:28;0.20;;;0.20;;
46128;SDS011;31860;45.186;5.790;2024-01-06T09:14:54;0.60;;;0.38;;
46128;SDS011;31860;45.186;5.790;2024-01-06T09:17:20;0.30;;;0.30;;
46128;SDS011;31860;45.186;5.790;2024-01-06T09:19:45;0.63;;;0.30;;
46128;SDS011;31860;45.186;5.790;2024-01-06T09:22:10;1.90;;;0.82;;
46128;SDS011;31860;45.186;5.790;2024-01-06T09:24:36;0.57;;;0.57;;
46128;SDS011;31860;45.186;5.790;2024-01-06T09:27:01;0.40;;;0.40;;
46128;SDS011;31860;45.186;5.790;2024-01-06T09:29:26;0.40;;;0.40;;
46128;SDS011;31860;45.186;5.790;2024-01-06T09:31:52;0.50;;;0.50;;
46128;SDS011;31860;45.186;5.790;2024-01-06T09:34:17;0.57;;;0.57;;
46128;SDS011;31860;45.186;5.790;2024-01-06T09:36:42;0.43;;;0.43;;
46128;SDS011;31860;45.186;5.790;2024-01-06T09:39:08;0.20;;;0.20;;
46128;SDS011;31860;45.186;5.790;2024-01-06T09:41:33;0.30;;;0.30;;
46128;SDS011;31860;45.186;5.790;2024-01-06T09:43:59;0.30;;;0.30;;
46128;SDS011;31860;45.186;5.790;2024-01-06T09:46:24;0.30;;;0.30;;
46128;SDS011;31860;45.186;5.790;2024-01-06T09:48:51;0.47;;;0.47;;
46128;SDS011;31860;45.186;5.790;2024-01-06T09:51:18;0.20;;;0.20;;
46128;SDS011;31860;45.186;5.790;2024-01-06T09:53:49;0.50;;;0.50;;
46128;SDS011;31860;45.186;5.790;2024-01-06T09:56:15;0.30;;;0.30;;
46128;SDS011;31860;45.186;5.790;2024-01-06T09:58:41;0.45;;;0.45;;
46128;SDS011;31860;45.186;5.790;2024-01-06T10:01:07;0.30;;;0.30;;
46128;SDS011;31860;45.186;5.790;2024-01-06T10:03:37;0.20;;;0.20;;
46128;SDS011;31860;45.186;5.790;2024-01-06T10:06:03;0.20;;;0.20;;
46128;SDS011;31860;45.186;5.790;2024-01-06T10:08:29;0.20;;;0.20;;
46128;SDS011;31860;45.186;5.790;2024-01-06T10:10:55;1.90;;;0.50;;
46128;SDS011;31860;45.186;5.790;2024-01-06T10:13:20;0.50;;;0.50;;
46128;SDS011;31860;45.186;5.790;2024-01-06T10:15:46;1.98;;;0.52;;
46128;SDS011;31860;45.186;5.790;2024-01-06T10:18:12;0.20;;;0.20;;
46128;SDS011;31860;45.186;5.790;2024-01-06T10:20:38;0.63;;;0.63;;
46128;SDS011;31860;45.186;5.790;2024-01-06T10:23:06;0.30;;;0.30;;
46128;SDS011;31860;45.186;5.790;2024-01-06T10:25:32;1.65;;;0.85;;
46128;SDS011;31860;45.186;5.790;2024-01-06T10:27:59;0.45;;;0.45;;
46128;SDS011;31860;45.186;5.790;2024-01-06T10:30:25;0.30;;;0.30;;
46128;SDS011;31860;45.186;5.790;2024-01-06T10:32:51;0.40;;;0.40;;
46128;SDS011;31860;45.186;5.790;2024-01-06T10:35:17;0.30;;;0.30;;
46128;SDS011;31860;45.186;5.790;2024-01-06T10:37:43;0.22;;;0.22;;
46128;SDS011;31860;45.186;5.790;2024-01-06T10:40:14;0.47;;;0.47;;
46128;SDS011;31860;45.186;5.790;2024-01-06T10:42:41;1.08;;;0.40;;
46128;SDS011;31860;45.186;5.790;2024-01-06T10:45:08;0.60;;;0.60;;
46128;SDS011;31860;45.186;5.790;2024-01-06T10:47:35;0.70;;;0.70;;
46128;SDS011;31860;45.186;5.790;2024-01-06T10:50:02;3.30;;;0.60;;
46128;SDS011;31860;45.186;5.790;2024-01-06T10:52:27;0.50;;;0.50;;
46128;SDS011;31860;45.186;5.790;2024-01-06T10:54:56;0.43;;;0.43;;
46128;SDS011;31860;45.186;5.790;2024-01-06T10:57:22;0.30;;;0.30;;
46128;SDS011;31860;45.186;5.790;2024-01-06T10:59:52;0.50;;;0.50;;
46128;SDS011;31860;45.186;5.790;2024-01-06T11:02:17;1.10;;;1.00;;
46128;SDS011;31860;45.186;5.790;2024-01-06T11:04:47;1.85;;;0.80;;
46128;SDS011;31860;45.186;5.790;2024-01-06T11:07:15;0.77;;;0.77;;
46128;SDS011;31860;45.186;5.790;2024-01-06T11:09:48;0.20;;;0.20;;
46128;SDS011;31860;45.186;5.790;2024-01-06T11:12:18;0.43;;;0.43;;
46128;SDS011;31860;45.186;5.790;2024-01-06T11:14:44;0.30;;;0.30;;
46128;SDS011;31860;45.186;5.790;2024-01-06T11:17:10;0.20;;;0.20;;
46128;SDS011;31860;45.186;5.790;2024-01-06T11:22:21;0.57;;;0.30;;
46128;SDS011;31860;45.186;5.790;2024-01-06T11:24:53;0.35;;;0.35;;
46128;SDS011;31860;45.186;5.790;2024-01-06T11:27:30;0.30;;;0.30;;
46128;SDS011;31860;45.186;5.790;2024-01-06T11:29:56;0.90;;;0.50;;
46128;SDS011;31860;45.186;5.790;2024-01-06T11:32:30;0.30;;;0.30;;
46128;SDS011;31860;45.186;5.790;2024-01-06T11:35:05;0.40;;;0.40;;
46128;SDS011;31860;45.186;5.790;2024-01-06T11:40:11;0.25;;;0.25;;
46128;SDS011;31860;45.186;5.790;2024-01-06T11:43:08;0.40;;;0.40;;
46128;SDS011;31860;45.186;5.790;2024-01-06T11:45:41;0.30;;;0.30;;
46128;SDS011;31860;45.186;5.790;2024-01-06T11:48:07;0.70;;;0.70;;
46128;SDS011;31860;45.186;5.790;2024-01-06T11:50:36;0.30;;;0.30;;
46128;SDS011;31860;45.186;5.790;2024-01-06T11:53:03;4.10;;;0.65;;
46128;SDS011;31860;45.186;5.790;2024-01-06T11:55:29;1.48;;;0.43;;
46128;SDS011;31860;45.186;5.790;2024-01-06T11:57:58;0.90;;;0.60;;
46128;SDS011;31860;45.186;5.790;2024-01-06T12:00:27;0.60;;;0.60;;
46128;SDS011;31860;45.186;5.790;2024-01-06T12:02:59;0.30;;;0.30;;
46128;SDS011;31860;45.186;5.790;2024-01-06T12:05:27;0.50;;;0.50;;
46128;SDS011;31860;45.186;5.790;2024-01-06T12:07:53;1.38;;;0.70;;
46128;SDS011;31860;45.186;5.790;2024-01-06T12:10:20;0.68;;;0.68;;
46128;SDS011;31860;45.186;5.790;2024-01-06T12:15:33;0.38;;;0.38;;
46128;SDS011;31860;45.186;5.790;2024-01-06T12:18:01;2.65;;;1.38;;
46128;SDS011;31860;45.186;5.790;2024-01-06T12:20:27;4.20;;;0.82;;
46128;SDS011;31860;45.186;5.790;2024-01-06T12:22:53;0.90;;;0.90;;
46128;SDS011;31860;45.186;5.790;2024-01-06T12:25:23;0.47;;;0.47;;
46128;SDS011;31860;45.186;5.790;2024-01-06T12:27:50;0.75;;;0.60;;
46128;SDS011;31860;45.186;5.790;2024-01-06T12:30:17;0.85;;;0.65;;
46128;SDS011;31860;45.186;5.790;2024-01-06T12:32:45;1.50;;;0.93;;
46128;SDS011;31860;45.186;5.790;2024-01-06T12:35:11;0.63;;;0.63;;
46128;SDS011;31860;45.186;5.790;2024-01-06T12:37:37;0.30;;;0.30;;
46128;SDS011;31860;45.186;5.790;2024-01-06T12:40:03;1.10;;;0.60;;
46128;SDS011;31860;45.186;5.790;2024-01-06T12:42:29;0.70;;;0.70;;
46128;SDS011;31860;45.186;5.790;2024-01-06T12:44:54;0.60;;;0.60;;
46128;SDS011;31860;45.186;5.790;2024-01-06T12:47:20;1.85;;;0.95;;
46128;SDS011;31860;45.186;5.790;2024-01-06T12:49:45;0.75;;;0.75;;
46128;SDS011;31860;45.186;5.790;2024-01-06T12:52:11;0.45;;;0.45;;
46128;SDS011;31860;45.186;5.790;2024-01-06T12:54:36;0.47;;;0.47;;
46128;SDS011;31860;45.186;5.790;2024-01-06T12:57:02;1.10;;;0.73;;
46128;SDS011;31860;45.186;5.790;2024-01-06T12:59:27;0.32;;;0.32;;
46128;SDS011;31860;45.186;5.790;2024-01-06T13:01:54;0.30;;;0.30;;
46128;SDS011;31860;45.186;5.790;2024-01-06T13:04:19;1.08;;;0.68;;
46128;SDS011;31860;45.186;5.790;2024-01-06T13:06:44;22.23;;;4.07;;
46128;SDS011;31860;45.186;5.790;2024-01-06T13:09:10;6.43;;;3.30;;
46128;SDS011;31860;45.186;5.790;2024-01-06T13:11:41;2.28;;;1.83;;
46128;SDS011;31860;45.186;5.790;2024-01-06T13:14:06;1.17;;;1.02;;
46128;SDS011;31860;45.186;5.790;2024-01-06T13:16:32;1.10;;;1.00;;
46128;SDS011;31860;45.186;5.790;2024-01-06T13:18:57;0.75;;;0.75;;
46128;SDS011;31860;45.186;5.790;2024-01-06T13:21:24;0.73;;;0.73;;
46128;SDS011;31860;45.186;5.790;2024-01-06T13:23:49;0.47;;;0.47;;
46128;SDS011;31860;45.186;5.790;2024-01-06T13:26:15;0.35;;;0.35;;
46128;SDS011;31860;45.186;5.790;2024-01-06T13:28:41;1.05;;;0.95;;
46128;SDS011;31860;45.186;5.790;2024-01-06T13:31:06;0.28;;;0.28;;
46128;SDS011;31860;45.186;5.790;2024-01-06T13:33:32;0.73;;;0.35;;
46128;SDS011;31860;45.186;5.790;2024-01-06T13:35:57;0.28;;;0.28;;
46128;SDS011;31860;45.186;5.790;2024-01-06T13:38:22;0.20;;;0.20;;
46128;SDS011;31860;45.186;5.790;2024-01-06T13:40:48;0.30;;;0.30;;
46128;SDS011;31860;45.186;5.790;2024-01-06T13:43:13;0.40;;;0.40;;
46128;SDS011;31860;45.186;5.790;2024-01-06T13:45:42;0.20;;;0.20;;
46128;SDS011;31860;45.186;5.790;2024-01-06T13:48:09;0.20;;;0.20;;
46128;SDS011;31860;45.186;5.790;2024-01-06T13:50:35;0.20;;;0.20;;
46128;SDS011;31860;45.186;5.790;2024-01-06T13:53:00;0.20;;;0.20;;
46128;SDS011;31860;45.186;5.790;2024-01-06T13:55:28;0.30;;;0.30;;
46128;SDS011;31860;45.186;5.790;2024-01-06T13:57:53;0.30;;;0.30;;
46128;SDS011;31860;45.186;5.790;2024-01-06T14:00:19;0.30;;;0.30;;
46128;SDS011;31860;45.186;5.790;2024-01-06T14:02:45;0.52;;;0.47;;
46128;SDS011;31860;45.186;5.790;2024-01-06T14:05:14;2.65;;;0.65;;
46128;SDS011;31860;45.186;5.790;2024-01-06T14:07:39;1.15;;;0.80;;
46128;SDS011;31860;45.186;5.790;2024-01-06T14:10:10;0.30;;;0.30;;
46128;SDS011;31860;45.186;5.790;2024-01-06T14:12:35;0.20;;;0.20;;
46128;SDS011;31860;45.186;5.790;2024-01-06T14:15:00;0.20;;;0.20;;
46128;SDS011;31860;45.186;5.790;2024-01-06T14:17:26;0.35;;;0.30;;
46128;SDS011;31860;45.186;5.790;2024-01-06T14:19:51;0.22;;;0.22;;
46128;SDS011;31860;45.186;5.790;2024-01-06T14:22:17;0.28;;;0.28;;
46128;SDS011;31860;45.186;5.790;2024-01-06T14:24:43;0.60;;;0.35;;
46128;SDS011;31860;45.186;5.790;2024-01-06T14:27:08;0.55;;;0.55;;
46128;SDS011;31860;45.186;5.790;2024-01-06T14:29:34;0.32;;;0.32;;
46128;SDS011;31860;45.186;5.790;2024-01-06T14:31:59;2.83;;;0.30;;
46128;SDS011;31860;45.186;5.790;2024-01-06T14:34:25;0.70;;;0.40;;
46128;SDS011;31860;45.186;5.790;2024-01-06T14:36:50;0.30;;;0.30;;
46128;SDS011;31860;45.186;5.790;2024-01-06T14:39:16;0.30;;;0.30;;
46128;SDS011;31860;45.186;5.790;2024-01-06T14:41:42;0.30;;;0.30;;
46128;SDS011;31860;45.186;5.790;2024-01-06T14:44:08;1.55;;;0.30;;
46128;SDS011;31860;45.186;5.790;2024-01-06T14:46:33;0.20;;;0.20;;
46128;SDS011;31860;45.186;5.790;2024-01-06T14:49:01;0.30;;;0.30;;